This is the latest recevied weather packets stored in our database for station/object EB2GLU-13. If no packets are shown the sender has not sent any weather packets the latest 10 day(s).
| Time | Temp. | Humidity | Pressure | Rain* | Wind** | Luminosity | Snow |
|---|---|---|---|---|---|---|---|
| 1787491917 | 39.44° C | 34% | 1005.3 hPa | 0 mm | - | - | - |
| 1787491167 | 38.33° C | 35% | 1005.4 hPa | 0 mm | - | - | - |
| 1787490417 | 36.67° C | 38% | 1005.5 hPa | 0 mm | - | - | - |
| 1787489667 | 36.11° C | 38% | 1005.8 hPa | 0 mm | - | - | - |
| 1787488918 | 36.67° C | 40% | 1006 hPa | 0 mm | - | - | - |
| 1787488167 | 37.22° C | 39% | 1005.9 hPa | 0 mm | - | - | - |
| 1787487397 | 35.56° C | 41% | 1006 hPa | 0 mm | - | - | - |
| 1787486647 | 36.11° C | 41% | 1006.2 hPa | 0 mm | - | - | - |
| 1787485897 | 35.56° C | 42% | 1006.2 hPa | 0 mm | - | - | - |
| 1787485147 | 35.56° C | 44% | 1006.4 hPa | 0 mm | - | - | - |
| 1787484397 | 35° C | 45% | 1006.6 hPa | 0 mm | - | - | - |
| 1787483647 | 34.44° C | 47% | 1006.7 hPa | 0 mm | - | - | - |
| 1787482897 | 35° C | 45% | 1006.7 hPa | 0 mm | - | - | - |
| 1787482147 | 33.89° C | 48% | 1006.6 hPa | 0 mm | - | - | - |
| 1787481397 | 33.33° C | 50% | 1006.9 hPa | 0 mm | - | - | - |
| 1787480647 | 32.78° C | 51% | 1006.8 hPa | 0 mm | - | - | - |
| 1787479897 | 31.67° C | 53% | 1007.1 hPa | 0 mm | - | - | - |
| 1787479147 | 32.22° C | 54% | 1007.1 hPa | 0 mm | - | - | - |
| 1787478397 | 31.11° C | 55% | 1007.2 hPa | 0 mm | - | - | - |
| 1787477647 | 31.67° C | 54% | 1007.3 hPa | 0 mm | - | - | - |
| 1787476897 | 30.56° C | 56% | 1007.2 hPa | 0 mm | - | - | - |
| 1787476147 | 30.56° C | 58% | 1007.4 hPa | 0 mm | - | - | - |
| 1787475397 | 30° C | 57% | 1007.7 hPa | 0 mm | - | - | - |
| 1787474647 | 30° C | 58% | 1007.5 hPa | 0 mm | - | - | - |
| 1787473897 | 29.44° C | 61% | 1007.1 hPa | 0 mm | - | - | - |
* Rain latest hour (hover to see other rain measurements)
** Current wind speed in m/s (hover to see current wind gust speed)